Aérodrome :
LOGIN :

S'inscrire | Disclaimer

   EN    FR    IT 

 










Légende :    VFR   VFR Marginal   IFR   IFR Intensif   IFR Très Intensif
Visi : 
Plafond : 
>= 8 km
>= 3000ft
5 à 8 km
1000 à 3000 ft
1500m à 5 km
500 à 1000 ft
800 à 1500m
200 à 500 ft
< 800m
< 200 ft
Symboles :   Orages  Brouillard  Fortes neiges  Fortes précipitations  Vent > 20 kt
SIGMETs :   Divers  Orages  Givrage  Turbulence  Onde Orograph.  Cendres Volcan.







- Altitude de l'aérodrome : 83 ft
- Code IATA : LHR
- Voir les cartes d'approche


EGLL - London Heathrow

DERNIER METAR :
  • 240650Z AUTO 28006KT 9999 NCD 22/19 Q1011

METARs EXPIRÉS :
  • 240620Z 27008KT CAVOK 21/19 Q1011
  • 240550Z AUTO 27005KT 9999 NCD 21/19 Q1011
  • 240520Z AUTO 27007KT 9999 NCD 20/19 Q1011
  • 240450Z AUTO VRB02KT 9999 NCD 21/19 Q1010 NOSIG
  • 240420Z AUTO VRB03KT 9999 NCD 20/19 Q1009

TAF TAF EGLL
Valide du 24 à 06h jusqu'au 25 à 12h UTC


240456Z 2406/2512 24008KT 9999 FEW045
BECMG 2510/2512 16010KT
Pas de NOTAMs connus pour ce terrain.
1 SIGMET publié pour la FIR London (EGTT) :
 
Orages noyés dans la masse avec grêle
EGTT SIGMET 03 VALID 240608/241000 EGRR
EGTT LONDON FIR EMBD TSGR FCST WI N5319 E00333 - N5133 E00202 - N5500 W00106 - N5500 E00137 - N5319 E00333 TOP FL380 MOV NE 35KT NC=



MET'MAP, la Météo Aéronautique d'un coup d'oeil ! - Copyright ORBIFLY Décembre 2007 - Disclaimer

ORBIFLY MET'MAP TEAM :

Programmation & Développement : Alexandra Zaïnal
Conception & Développement : Baudouin d'Aumeries
Co-Programmation & Développement : Marc-Olivier Méhu
Soutien technique & logistique : Manuel Goepfert

Contact : metmap@orbifly.com




SOURCES & CREDITS :

   NOAA